createdAt,value
2022-12-01T00:01:17.505Z,98418.42
2022-12-01T00:03:45.471Z,98415.70
2022-12-01T00:06:17.995Z,98414.52
2022-12-01T00:09:06.092Z,98416.04
2022-12-01T00:11:34.876Z,98418.09
2022-12-01T00:14:03.156Z,98420.82
2022-12-01T00:16:31.357Z,98426.80
2022-12-01T00:18:59.501Z,98425.42
2022-12-01T00:21:27.575Z,98423.89
2022-12-01T00:23:57.184Z,98423.20
2022-12-01T00:26:26.172Z,98425.92
2022-12-01T00:28:58.652Z,98424.55
2022-12-01T00:31:27.037Z,98421.98
2022-12-01T00:33:55.251Z,98417.20
2022-12-01T00:36:23.472Z,98417.04
2022-12-01T00:38:52.093Z,98416.68
2022-12-01T00:41:21.167Z,98418.89
2022-12-01T00:43:49.541Z,98427.42
2022-12-01T00:46:18.061Z,98423.67
2022-12-01T00:48:46.085Z,98421.45
2022-12-01T00:51:14.053Z,98421.10
2022-12-01T00:53:42.233Z,98421.61
2022-12-01T00:56:10.410Z,98417.36
2022-12-01T00:58:38.372Z,98422.13
2022-12-01T01:01:06.583Z,98423.48
2022-12-01T01:03:35.033Z,98421.96
2022-12-01T01:06:07.687Z,98421.95
2022-12-01T01:08:36.190Z,98427.39
2022-12-01T01:11:04.874Z,98424.16
2022-12-01T01:13:33.133Z,98423.14
2022-12-01T01:16:05.860Z,98423.82
2022-12-01T01:18:34.421Z,98420.58
2022-12-01T01:21:04.442Z,98417.34
2022-12-01T01:23:32.816Z,98415.98
2022-12-01T01:26:02.316Z,98410.86
2022-12-01T01:28:31.315Z,98409.66
2022-12-01T01:30:59.579Z,98411.20
2022-12-01T01:33:27.558Z,98412.91
2022-12-01T01:35:58.722Z,98411.04
2022-12-01T01:38:27.183Z,98410.35
2022-12-01T01:40:55.461Z,98406.93
2022-12-01T01:43:42.171Z,98403.17
2022-12-01T01:46:11.949Z,98398.74
2022-12-01T01:48:41.799Z,98396.36
2022-12-01T01:51:11.789Z,98393.96
2022-12-01T01:53:40.599Z,98393.10
2022-12-01T01:56:08.966Z,98395.83
2022-12-01T01:58:37.976Z,98393.62
2022-12-01T02:01:06.607Z,98392.09
2022-12-01T02:03:35.758Z,98391.23
2022-12-01T02:06:05.180Z,98390.02
2022-12-01T02:08:34.812Z,98396.50
2022-12-01T02:11:12.532Z,98392.40
2022-12-01T02:13:43.373Z,98391.04
2022-12-01T02:16:23.569Z,98387.98
2022-12-01T02:19:10.475Z,98385.92
2022-12-01T02:21:57.286Z,98389.52
2022-12-01T02:24:50.547Z,98387.98
2022-12-01T02:27:31.011Z,98391.71
2022-12-01T02:29:58.878Z,98388.81
2022-12-01T02:32:37.501Z,98385.56
2022-12-01T02:35:24.099Z,98386.25
2022-12-01T02:37:52.069Z,98385.06
2022-12-01T02:40:41.993Z,98382.34
2022-12-01T02:43:17.712Z,98382.48
2022-12-01T02:45:51.865Z,98388.45
2022-12-01T02:48:26.887Z,98388.63
2022-12-01T02:50:57.487Z,98387.60
2022-12-01T02:53:26.068Z,98388.46
2022-12-01T02:55:55.163Z,98390.67
2022-12-01T02:58:23.344Z,98390.48
2022-12-01T03:01:26.726Z,98387.92
2022-12-01T03:04:13.247Z,98386.56
2022-12-01T03:07:00.058Z,98389.46
2022-12-01T03:09:47.214Z,98387.75
2022-12-01T03:12:34.477Z,98388.44
2022-12-01T03:15:05.242Z,98386.39
2022-12-01T03:17:38.713Z,98386.05
2022-12-01T03:20:27.899Z,98386.08
2022-12-01T03:22:59.289Z,98383.69
2022-12-01T03:25:28.958Z,98382.50
2022-12-01T03:28:20.586Z,98385.05
2022-12-01T03:30:49.538Z,98382.16
2022-12-01T03:33:24.196Z,98378.75
2022-12-01T03:35:56.583Z,98376.55
2022-12-01T03:38:25.665Z,98376.38
2022-12-01T03:40:58.960Z,98376.03
2022-12-01T03:43:30.615Z,98374.33
2022-12-01T03:46:10.785Z,98377.07
2022-12-01T03:48:39.869Z,98375.38
2022-12-01T03:51:31.392Z,98374.88
2022-12-01T03:53:59.256Z,98369.45
2022-12-01T03:56:30.915Z,98366.73
2022-12-01T03:59:01.643Z,98373.73
2022-12-01T04:01:36.324Z,98373.23
2022-12-01T04:04:06.183Z,98370.84
2022-12-01T04:06:34.579Z,98373.41
2022-12-01T04:09:02.536Z,98376.82
2022-12-01T04:11:49.242Z,98375.78
2022-12-01T04:14:17.089Z,98374.24
2022-12-01T04:16:44.977Z,98374.75
2022-12-01T04:19:13.058Z,98373.90
2022-12-01T04:21:40.924Z,98373.73
2022-12-01T04:24:09.088Z,98376.80
2022-12-01T04:26:37.489Z,98376.78
2022-12-01T04:29:06.874Z,98376.10
2022-12-01T04:31:34.919Z,98377.80
2022-12-01T04:34:03.534Z,98380.55
2022-12-01T04:36:32.928Z,98379.52
2022-12-01T04:39:01.212Z,98377.48
2022-12-01T04:41:29.386Z,98378.49
2022-12-01T04:43:57.666Z,98385.16
2022-12-01T04:46:25.885Z,98388.23
2022-12-01T04:48:53.905Z,98389.95
2022-12-01T04:51:22.396Z,98390.80
2022-12-01T04:53:50.872Z,98390.63
2022-12-01T04:56:18.845Z,98392.33
2022-12-01T04:58:47.113Z,98390.63
2022-12-01T05:01:16.482Z,98387.39
2022-12-01T05:03:45.666Z,98387.05
2022-12-01T05:06:15.221Z,98387.89
2022-12-01T05:08:43.189Z,98386.37
2022-12-01T05:11:12.493Z,98389.27
2022-12-01T05:13:41.695Z,98384.16
2022-12-01T05:16:16.722Z,98382.78
2022-12-01T05:18:48.471Z,98381.09
2022-12-01T05:21:17.174Z,98375.63
2022-12-01T05:23:45.791Z,98375.62
2022-12-01T05:26:13.846Z,98371.36
2022-12-01T05:28:42.021Z,98369.30
2022-12-01T05:31:10.114Z,98369.32
2022-12-01T05:33:38.147Z,98367.94
2022-12-01T05:36:06.317Z,98369.65
2022-12-01T05:38:34.136Z,98378.00
2022-12-01T05:41:02.053Z,98381.91
2022-12-01T05:43:30.035Z,98380.39
2022-12-01T05:45:58.473Z,98383.45
2022-12-01T05:48:26.680Z,98384.66
2022-12-01T05:50:54.520Z,98379.70
2022-12-01T05:53:22.412Z,98379.03
2022-12-01T05:55:53.967Z,98381.08
2022-12-01T05:58:22.526Z,98382.60
2022-12-01T06:00:50.422Z,98379.55
2022-12-01T06:03:18.384Z,98380.23
2022-12-01T06:05:46.461Z,98379.03
2022-12-01T06:08:14.425Z,98377.15
2022-12-01T06:10:42.299Z,98377.66
2022-12-01T06:13:10.159Z,98383.45
2022-12-01T06:15:38.031Z,98387.04
2022-12-01T06:18:05.892Z,98387.56
2022-12-01T06:20:33.761Z,98385.67
2022-12-01T06:23:01.957Z,98385.33
2022-12-01T06:25:30.319Z,98388.40
2022-12-01T06:27:58.697Z,98388.58
2022-12-01T06:30:27.069Z,98385.52
2022-12-01T06:32:55.047Z,98387.57
2022-12-01T06:35:23.014Z,98392.50
2022-12-01T06:37:52.935Z,98394.71
2022-12-01T06:40:20.779Z,98396.58
2022-12-01T06:42:48.563Z,98397.58
2022-12-01T06:45:16.429Z,98398.75
2022-12-01T06:47:44.393Z,98399.03
2022-12-01T06:50:12.464Z,98400.02
2022-12-01T06:52:40.332Z,98396.84
2022-12-01T06:55:08.608Z,98390.88
2022-12-01T06:57:36.578Z,98391.67
2022-12-01T07:00:05.107Z,98392.23
2022-12-01T07:02:33.356Z,98391.42
2022-12-01T07:05:01.932Z,98390.38
2022-12-01T07:07:29.830Z,98390.98
2022-12-01T07:09:57.969Z,98386.57
2022-12-01T07:12:25.831Z,98382.80
2022-12-01T07:14:53.698Z,98382.39
2022-12-01T07:17:21.668Z,98376.94
2022-12-01T07:19:49.892Z,98373.11
2022-12-01T07:22:19.043Z,98365.08
2022-12-01T07:24:47.111Z,98364.13
2022-12-01T07:27:15.089Z,98362.83
2022-12-01T07:29:42.897Z,98358.95
2022-12-01T07:32:10.915Z,98352.98
2022-12-01T07:34:38.993Z,98352.07
2022-12-01T07:37:06.811Z,98353.64
2022-12-01T07:39:34.797Z,98351.71
2022-12-01T07:42:03.012Z,98350.86
2022-12-01T07:44:30.965Z,98351.15
2022-12-01T07:46:58.941Z,98347.63
2022-12-01T07:49:26.910Z,98349.23
2022-12-01T07:51:54.881Z,98347.05
2022-12-01T07:54:23.050Z,98345.77
2022-12-01T07:56:50.927Z,98342.24
2022-12-01T07:59:18.896Z,98344.85
2022-12-01T08:01:46.882Z,98346.60
2022-12-01T08:04:14.682Z,98349.88
2022-12-01T08:06:42.596Z,98345.69
2022-12-01T08:09:10.573Z,98345.97
2022-12-01T08:11:38.410Z,98343.87
2022-12-01T08:14:06.503Z,98340.02
2022-12-01T08:16:34.373Z,98334.60
2022-12-01T08:19:02.238Z,98327.52
2022-12-01T08:21:30.303Z,98323.61
2022-12-01T08:23:58.789Z,98321.20
2022-12-01T08:26:27.032Z,98319.75
2022-12-01T08:28:55.541Z,98317.70
2022-12-01T08:31:31.374Z,98314.05
2022-12-01T08:33:59.371Z,98311.44
2022-12-01T08:36:27.337Z,98310.54
2022-12-01T08:38:55.898Z,98315.29
2022-12-01T08:41:24.844Z,98312.30
2022-12-01T08:43:58.400Z,98310.29
2022-12-01T08:46:28.521Z,98303.41
2022-12-01T08:48:57.839Z,98304.58
2022-12-01T08:51:26.732Z,98304.81
2022-12-01T08:53:55.515Z,98304.26
2022-12-01T08:56:24.315Z,98298.59
2022-12-01T08:58:53.403Z,98293.43
2022-12-01T09:01:21.971Z,98296.34
2022-12-01T09:04:05.684Z,98296.70
2022-12-01T09:06:42.199Z,98293.91
2022-12-01T09:09:11.599Z,98292.57
2022-12-01T09:11:40.274Z,98294.29
2022-12-01T09:14:08.269Z,98291.59
2022-12-01T09:16:36.637Z,98288.00
2022-12-01T09:19:04.678Z,98286.95
2022-12-01T09:21:33.796Z,98288.98
2022-12-01T09:24:01.768Z,98294.12
2022-12-01T09:26:30.044Z,98291.86
2022-12-01T09:29:03.851Z,98289.88
2022-12-01T09:31:32.173Z,98287.44
2022-12-01T09:34:01.738Z,98284.92
2022-12-01T09:36:31.248Z,98282.17
2022-12-01T09:38:59.616Z,98284.77
2022-12-01T09:41:27.583Z,98279.05
2022-12-01T09:43:58.329Z,98265.23
2022-12-01T09:46:30.856Z,98267.57
2022-12-01T09:49:01.446Z,98262.39
2022-12-01T09:51:30.029Z,98262.14
2022-12-01T09:53:59.728Z,98254.73
2022-12-01T09:56:29.439Z,98255.30
2022-12-01T09:58:58.525Z,98258.44
2022-12-01T10:01:42.483Z,98254.66
2022-12-01T10:04:14.242Z,98252.06
2022-12-01T10:06:46.501Z,98248.02
2022-12-01T10:09:20.412Z,98246.30
2022-12-01T10:11:48.897Z,98248.23
2022-12-01T10:14:20.383Z,98246.19
2022-12-01T10:16:51.693Z,98242.39
2022-12-01T10:19:33.999Z,98246.24
2022-12-01T10:22:04.649Z,98248.79
2022-12-01T10:24:44.577Z,98245.23
2022-12-01T10:27:21.971Z,98241.77
2022-12-01T10:29:53.207Z,98241.77
2022-12-01T10:32:30.819Z,98242.84
2022-12-01T10:34:59.184Z,98241.09
2022-12-01T10:37:28.952Z,98236.59
2022-12-01T10:39:58.004Z,98230.84
2022-12-01T10:42:31.804Z,98233.02
2022-12-01T10:45:01.617Z,98231.98
2022-12-01T10:47:29.989Z,98230.88
2022-12-01T10:49:58.387Z,98228.60
2022-12-01T10:52:35.356Z,98235.02
2022-12-01T10:55:04.965Z,98228.68
2022-12-01T10:57:33.137Z,98229.58
2022-12-01T11:00:09.043Z,98226.39
2022-12-01T11:02:37.228Z,98224.10
2022-12-01T11:05:07.207Z,98222.73
2022-12-01T11:07:42.383Z,98220.98
2022-12-01T11:10:10.285Z,98213.16
2022-12-01T11:12:38.261Z,98211.05
2022-12-01T11:15:06.666Z,98210.58
2022-12-01T11:17:40.670Z,98210.92
2022-12-01T11:20:30.569Z,98211.38
2022-12-01T11:23:17.311Z,98206.59
2022-12-01T11:25:57.350Z,98199.92
2022-12-01T11:28:25.591Z,98199.30
2022-12-01T11:31:01.644Z,98200.50
2022-12-01T11:33:30.925Z,98203.99
2022-12-01T11:35:59.000Z,98202.10
2022-12-01T11:38:31.911Z,98197.25
2022-12-01T11:40:59.964Z,98195.98
2022-12-01T11:43:32.580Z,98196.62
2022-12-01T11:46:03.763Z,98200.29
2022-12-01T11:48:34.625Z,98197.48
2022-12-01T11:51:17.951Z,98196.25
2022-12-01T11:53:45.923Z,98198.95
2022-12-01T11:56:14.930Z,98193.75
2022-12-01T11:58:43.747Z,98193.60
2022-12-01T12:01:31.909Z,98195.13
2022-12-01T12:04:02.674Z,98197.73
2022-12-01T12:06:47.440Z,98196.83
2022-12-01T12:09:15.465Z,98200.06
2022-12-01T12:11:43.379Z,98197.94
2022-12-01T12:14:28.859Z,98200.77
2022-12-01T12:17:03.386Z,98201.20
2022-12-01T12:20:07.231Z,98196.85
2022-12-01T12:22:35.876Z,98193.27
2022-12-01T12:25:06.815Z,98193.70
2022-12-01T12:27:40.616Z,98195.59
2022-12-01T12:30:11.334Z,98197.45
2022-12-01T12:32:39.229Z,98195.66
2022-12-01T12:35:07.813Z,98196.85
2022-12-01T12:37:35.777Z,98196.21
2022-12-01T12:40:06.513Z,98194.34
2022-12-01T12:42:43.702Z,98194.34
2022-12-01T12:45:15.153Z,98190.88
2022-12-01T12:47:59.200Z,98190.27
2022-12-01T12:50:36.396Z,98189.90
2022-12-01T12:53:08.854Z,98194.31
2022-12-01T12:55:39.184Z,98194.41
2022-12-01T12:58:15.976Z,98194.75
2022-12-01T13:00:50.745Z,98191.14
2022-12-01T13:03:32.248Z,98192.39
2022-12-01T13:06:01.885Z,98195.08
2022-12-01T13:08:34.607Z,98193.13
2022-12-01T13:11:17.890Z,98194.23
2022-12-01T13:13:54.871Z,98197.03
2022-12-01T13:16:26.251Z,98197.95
2022-12-01T13:18:56.197Z,98197.48
2022-12-01T13:21:24.357Z,98195.77
2022-12-01T13:23:52.706Z,98191.83
2022-12-01T13:26:21.572Z,98193.54
2022-12-01T13:28:56.625Z,98202.16
2022-12-01T13:31:25.070Z,98197.70
2022-12-01T13:33:59.213Z,98196.41
2022-12-01T13:36:46.208Z,98192.89
2022-12-01T13:39:19.827Z,98190.07
2022-12-01T13:41:57.634Z,98191.36
2022-12-01T13:44:45.692Z,98190.20
2022-12-01T13:47:13.634Z,98193.05
2022-12-01T13:49:46.316Z,98194.82
2022-12-01T13:52:18.892Z,98193.15
2022-12-01T13:55:05.683Z,98193.36
2022-12-01T13:57:38.389Z,98194.05
2022-12-01T14:00:09.127Z,98197.21
2022-12-01T14:02:40.357Z,98195.90
2022-12-01T14:05:23.509Z,98193.02
2022-12-01T14:07:52.660Z,98194.93
2022-12-01T14:10:25.988Z,98193.08
2022-12-01T14:12:56.117Z,98191.73
2022-12-01T14:15:30.017Z,98193.33
2022-12-01T14:18:06.244Z,98198.24
2022-12-01T14:20:38.030Z,98195.55
2022-12-01T14:23:17.432Z,98195.48
2022-12-01T14:25:57.423Z,98195.20
2022-12-01T14:28:43.827Z,98193.27
2022-12-01T14:31:12.016Z,98192.38
2022-12-01T14:33:40.089Z,98193.16
2022-12-01T14:36:23.196Z,98196.70
2022-12-01T14:38:52.912Z,98195.25
2022-12-01T14:41:32.553Z,98194.64
2022-12-01T14:44:09.835Z,98190.92
2022-12-01T14:46:46.207Z,98194.07
2022-12-01T14:49:18.062Z,98196.86
2022-12-01T14:51:47.465Z,98200.32
2022-12-01T14:54:18.659Z,98198.29
2022-12-01T14:56:48.200Z,98197.14
2022-12-01T14:59:22.021Z,98196.83
2022-12-01T15:01:58.477Z,98194.92
2022-12-01T15:04:26.436Z,98195.11
2022-12-01T15:06:56.380Z,98195.14
2022-12-01T15:09:33.662Z,98199.48
2022-12-01T15:12:05.021Z,98200.02
2022-12-01T15:14:46.409Z,98199.39
2022-12-01T15:17:43.553Z,98203.73
2022-12-01T15:20:26.882Z,98203.10
2022-12-01T15:22:55.652Z,98201.45
2022-12-01T15:25:24.002Z,98200.83
2022-12-01T15:28:10.557Z,98202.94
2022-12-01T15:30:39.331Z,98204.88
2022-12-01T15:33:08.372Z,98205.81
2022-12-01T15:35:36.519Z,98204.48
2022-12-01T15:38:05.096Z,98205.88
2022-12-01T15:43:23.254Z,98202.73
2022-12-01T15:45:54.742Z,98203.98
2022-12-01T15:48:27.695Z,98205.55
2022-12-01T15:51:19.013Z,98207.51
2022-12-01T15:53:49.541Z,98208.91
2022-12-01T15:56:24.702Z,98213.75
2022-12-01T15:58:56.021Z,98214.98
2022-12-01T16:01:29.153Z,98214.33
2022-12-01T16:03:58.549Z,98216.98
2022-12-01T16:06:31.706Z,98218.06
2022-12-01T16:09:01.706Z,98218.63
2022-12-01T16:11:29.919Z,98224.17
2022-12-01T16:14:00.743Z,98224.37
2022-12-01T16:16:31.806Z,98226.30
2022-12-01T16:19:02.347Z,98229.60
2022-12-01T16:21:45.636Z,98227.94
2022-12-01T16:24:15.446Z,98227.45
2022-12-01T16:27:09.841Z,98226.27
2022-12-01T16:29:57.470Z,98226.93
2022-12-01T16:32:30.513Z,98229.75
2022-12-01T16:34:58.486Z,98228.77
2022-12-01T16:37:27.017Z,98232.23
2022-12-01T16:39:54.880Z,98234.16
2022-12-01T16:42:22.848Z,98232.66
2022-12-01T16:44:52.155Z,98231.14
2022-12-01T16:47:22.059Z,98229.08
2022-12-01T16:49:50.233Z,98232.36
2022-12-01T16:55:20.680Z,98234.23
2022-12-01T16:57:48.547Z,98236.33
2022-12-01T17:00:16.756Z,98237.60
2022-12-01T17:02:44.787Z,98239.55
2022-12-01T17:05:12.970Z,98238.57
2022-12-01T17:07:41.271Z,98239.51
2022-12-01T17:10:09.626Z,98235.95
2022-12-01T17:12:37.449Z,98239.23
2022-12-01T17:15:05.776Z,98239.59
2022-12-01T17:17:33.839Z,98238.94
2022-12-01T17:20:02.055Z,98236.23
2022-12-01T17:22:30.296Z,98235.40
2022-12-01T17:24:59.601Z,98238.15
2022-12-01T17:27:27.866Z,98239.73
2022-12-01T17:29:55.956Z,98238.86
2022-12-01T17:32:23.910Z,98242.15
2022-12-01T17:34:52.087Z,98245.09
2022-12-01T17:37:21.254Z,98246.33
2022-12-01T17:39:50.070Z,98250.61
2022-12-01T17:42:18.150Z,98252.52
2022-12-01T17:44:45.950Z,98251.89
2022-12-01T17:47:13.950Z,98251.44
2022-12-01T17:49:42.050Z,98251.98
2022-12-01T17:52:10.473Z,98249.64
2022-12-01T17:54:38.722Z,98246.05
2022-12-01T17:57:09.547Z,98249.32
2022-12-01T17:59:37.517Z,98248.52
2022-12-01T18:02:06.022Z,98249.90
2022-12-01T18:04:34.481Z,98251.25
2022-12-01T18:07:02.447Z,98249.17
2022-12-01T18:09:30.310Z,98249.33
2022-12-01T18:12:00.638Z,98248.11
2022-12-01T18:14:32.809Z,98246.61
2022-12-01T18:17:01.091Z,98241.14
2022-12-01T18:19:29.054Z,98240.31
2022-12-01T18:21:57.105Z,98239.46
2022-12-01T18:24:25.204Z,98241.34
2022-12-01T18:26:54.500Z,98244.25
2022-12-01T18:29:26.314Z,98243.70
2022-12-01T18:31:58.609Z,98245.36
2022-12-01T18:34:27.517Z,98250.13
2022-12-01T18:36:55.324Z,98248.73
2022-12-01T18:39:23.472Z,98248.52
2022-12-01T18:41:51.531Z,98248.16
2022-12-01T18:44:19.375Z,98246.78
2022-12-01T18:46:47.520Z,98251.70
2022-12-01T18:49:15.746Z,98252.88
2022-12-01T18:51:43.826Z,98249.27
2022-12-01T18:54:14.115Z,98250.69
2022-12-01T18:56:42.220Z,98249.35
2022-12-01T18:59:11.206Z,98250.90
2022-12-01T19:01:40.756Z,98251.61
2022-12-01T19:04:09.402Z,98249.63
2022-12-01T19:06:38.081Z,98250.45
2022-12-01T19:09:07.081Z,98250.61
2022-12-01T19:11:35.678Z,98250.97
2022-12-01T19:14:03.944Z,98251.20
2022-12-01T19:16:32.103Z,98251.82
2022-12-01T19:19:01.145Z,98248.42
2022-12-01T19:21:29.091Z,98250.70
2022-12-01T19:23:57.145Z,98249.01
2022-12-01T19:26:26.143Z,98248.95
2022-12-01T19:28:54.059Z,98245.59
2022-12-01T19:31:23.765Z,98246.21
2022-12-01T19:33:52.874Z,98247.39
2022-12-01T19:36:25.592Z,98252.17
2022-12-01T19:38:55.618Z,98256.25
2022-12-01T19:41:25.634Z,98258.80
2022-12-01T19:43:53.601Z,98258.27
2022-12-01T19:46:23.279Z,98256.01
2022-12-01T19:49:00.253Z,98253.21
2022-12-01T19:51:32.259Z,98253.98
2022-12-01T19:54:00.228Z,98253.05
2022-12-01T19:56:28.499Z,98253.96
2022-12-01T19:58:57.478Z,98251.94
2022-12-01T20:01:26.373Z,98252.48
2022-12-01T20:03:54.954Z,98250.65
2022-12-01T20:06:27.076Z,98253.58
2022-12-01T20:08:56.133Z,98251.23
2022-12-01T20:11:24.717Z,98250.92
2022-12-01T20:13:53.404Z,98254.44
2022-12-01T20:16:25.135Z,98255.02
2022-12-01T20:18:53.650Z,98251.95
2022-12-01T20:21:23.154Z,98253.20
2022-12-01T20:23:54.576Z,98256.16
2022-12-01T20:26:27.549Z,98258.96
2022-12-01T20:28:59.966Z,98258.31
2022-12-01T20:31:28.790Z,98257.84
2022-12-01T20:33:57.848Z,98254.27
2022-12-01T20:36:26.425Z,98255.30
2022-12-01T20:38:54.700Z,98254.11
2022-12-01T20:41:22.572Z,98252.59
2022-12-01T20:43:50.542Z,98250.05
2022-12-01T20:46:19.052Z,98249.55
2022-12-01T20:48:47.000Z,98251.80
2022-12-01T20:51:15.488Z,98252.19
2022-12-01T20:53:59.471Z,98250.70
2022-12-01T20:56:31.681Z,98250.36
2022-12-01T20:59:00.077Z,98252.64
2022-12-01T21:01:28.317Z,98254.90
2022-12-01T21:03:56.416Z,98252.54
2022-12-01T21:06:24.383Z,98254.83
2022-12-01T21:08:52.353Z,98251.40
2022-12-01T21:11:41.104Z,98255.02
2022-12-01T21:14:32.437Z,98253.13
2022-12-01T21:17:03.957Z,98251.08
2022-12-01T21:19:45.565Z,98250.38
2022-12-01T21:22:13.679Z,98251.77
2022-12-01T21:24:43.994Z,98254.48
2022-12-01T21:27:13.906Z,98257.07
2022-12-01T21:29:46.896Z,98261.36
2022-12-01T21:32:16.473Z,98259.83
2022-12-01T21:34:45.570Z,98260.67
2022-12-01T21:37:21.626Z,98260.33
2022-12-01T21:39:53.706Z,98260.00
2022-12-01T21:42:22.866Z,98260.68
2022-12-01T21:44:51.323Z,98261.88
2022-12-01T21:47:24.057Z,98264.04
2022-12-01T21:49:59.136Z,98268.95
2022-12-01T21:52:34.535Z,98268.92
2022-12-01T21:55:14.485Z,98268.86
2022-12-01T21:57:46.854Z,98270.52
2022-12-01T22:00:26.089Z,98270.94
2022-12-01T22:03:00.193Z,98270.29
2022-12-01T22:05:28.181Z,98268.05
2022-12-01T22:07:59.895Z,98263.55
2022-12-01T22:10:46.741Z,98265.60
2022-12-01T22:13:14.710Z,98265.44
2022-12-01T22:15:42.701Z,98263.73
2022-12-01T22:18:37.181Z,98262.20
2022-12-01T22:21:25.312Z,98261.36
2022-12-01T22:24:08.339Z,98260.81
2022-12-01T22:26:37.438Z,98260.74
2022-12-01T22:29:16.870Z,98260.39
2022-12-01T22:31:44.738Z,98254.59
2022-12-01T22:34:15.985Z,98254.35
2022-12-01T22:36:44.258Z,98252.69
2022-12-01T22:39:33.462Z,98249.04
2022-12-01T22:42:05.491Z,98247.36
2022-12-01T22:44:33.467Z,98243.30
2022-12-01T22:47:02.360Z,98241.48
2022-12-01T22:49:30.604Z,98243.27
2022-12-01T22:52:28.306Z,98241.78
2022-12-01T22:54:56.264Z,98243.77
2022-12-01T22:57:26.289Z,98242.19
2022-12-01T22:59:54.986Z,98245.20
2022-12-01T23:02:34.173Z,98247.52
2022-12-01T23:05:14.977Z,98245.85
2022-12-01T23:07:43.959Z,98246.40
2022-12-01T23:10:17.065Z,98245.91
2022-12-01T23:12:45.919Z,98242.88
2022-12-01T23:15:19.758Z,98242.41
2022-12-01T23:17:48.028Z,98242.15
2022-12-01T23:20:26.967Z,98241.36
2022-12-01T23:22:55.946Z,98244.40
2022-12-01T23:25:24.880Z,98248.60
2022-12-01T23:27:53.831Z,98247.96
2022-12-01T23:30:22.415Z,98245.27
2022-12-01T23:33:13.503Z,98243.58
2022-12-01T23:35:46.311Z,98245.30
2022-12-01T23:38:18.989Z,98246.36
2022-12-01T23:40:47.580Z,98247.60
2022-12-01T23:43:23.946Z,98247.47
2022-12-01T23:45:58.772Z,98242.67
2022-12-01T23:48:31.656Z,98245.60
2022-12-01T23:50:59.831Z,98246.48
2022-12-01T23:53:28.930Z,98243.42
2022-12-01T23:55:59.657Z,98243.80
2022-12-01T23:58:28.187Z,98243.48
